Cades, SC (29518)

4:58 PM EST on December 06, 2016 (GMT -0500)
Williamsburg County | | Change Station

Elev 66 ft 33.72 °N, 79.86 °W | Updated 3 minutes ago

Overcast
Overcast
52 °F
Feels Like 52 °F
N
9
Wind Variable Wind from WNW

Today
High -- | Low -- °F
--% Chance of Precip.
Yesterday
High -- | Low -- °F
Precip. -- in
Pressure 29.76 in
Visibility 7.0 miles
Clouds Overcast 300 ft
Dew Point 50 °F
Humidity 94%
Rainfall 1.06 in
Snow Depth Not available.
7:10 AM 5:10 PM
Waxing Crescent, 45% visible
METAR KCKI 062155Z AUTO 30008KT 7SM OVC003 11/10 A2976 RMK AO2
Pressure 29.76 in
Visibility 7.0 miles
Clouds Overcast 300 ft
Dew Point 50 °F
Humidity 94%
Rainfall 1.06 in
Snow Depth Not available.
7:10 AM 5:10 PM
Waxing Crescent, 45% visible
METAR KCKI 062155Z AUTO 30008KT 7SM OVC003 11/10 A2976 RMK AO2

10-Day Weather Forecast

Almanac

Astronomy

Dec. 06, 2016 Rise Set
Actual Time
Civil Twilight
Nautical Twilight
Astronomical Twilight
Moon
Length of Visible Light
Length of Day
Tomorrow will be .
, % of the Moon is Illuminated

Today's Extremes

State Highs State Lows

Community

WunderPhotos

Upload Photos

1,956,033 photos uploaded!

WunderBlog® & News

Nearby

Air Quality

  Air Quality AQ Index Pollutant
Not available.

Snow Depth

Station Depth Elevation

Earthquake Activity

City Distance Mag. Time & Date
Minimum magnitude displayed is 2.5.

Coastal Water Temperatures

Place Temperature

Stations

Nearby Weather Stations

Station Location Temp. Windchill Dew Point Humidity Wind Precip. Elev Updated Type
                   

Watches & Warnings

There are currently no watches in effect.